createdAt,value
2023-04-08T00:00:28.618Z,35.10
2023-04-08T00:03:16.914Z,36.20
2023-04-08T00:05:45.729Z,32.80
2023-04-08T00:08:14.782Z,34.80
2023-04-08T00:10:42.937Z,31.90
2023-04-08T00:13:11.612Z,32.50
2023-04-08T00:15:39.593Z,33.30
2023-04-08T00:18:08.402Z,30.00
2023-04-08T00:20:36.772Z,30.60
2023-04-08T00:23:04.681Z,30.00
2023-04-08T00:25:32.898Z,29.60
2023-04-08T00:28:03.315Z,31.90
2023-04-08T00:30:31.408Z,29.60
2023-04-08T00:32:59.450Z,31.70
2023-04-08T00:35:27.680Z,30.70
2023-04-08T00:37:56.090Z,31.80
2023-04-08T00:40:24.027Z,32.80
2023-04-08T00:42:52.026Z,31.30
2023-04-08T00:45:20.614Z,31.20
2023-04-08T00:47:52.971Z,32.10
2023-04-08T00:50:21.451Z,35.20
2023-04-08T00:52:49.560Z,32.30
2023-04-08T00:55:17.501Z,30.20
2023-04-08T00:57:46.679Z,29.20
2023-04-08T01:00:15.915Z,33.00
2023-04-08T01:03:00.613Z,28.90
2023-04-08T01:05:51.673Z,30.30
2023-04-08T01:08:19.883Z,29.10
2023-04-08T01:10:51.185Z,28.30
2023-04-08T01:13:21.122Z,28.20
2023-04-08T01:15:49.008Z,28.80
2023-04-08T01:18:17.652Z,27.70
2023-04-08T01:20:46.650Z,29.30
2023-04-08T01:23:25.258Z,30.10
2023-04-08T01:25:54.871Z,30.70
2023-04-08T01:28:25.130Z,28.70
2023-04-08T01:30:55.473Z,29.80
2023-04-08T01:33:24.307Z,27.00
2023-04-08T01:35:54.163Z,30.70
2023-04-08T01:38:23.210Z,30.30
2023-04-08T01:40:51.686Z,31.60
2023-04-08T01:43:19.760Z,30.90
2023-04-08T01:45:48.462Z,32.10
2023-04-08T01:48:16.615Z,28.40
2023-04-08T01:50:45.958Z,31.00
2023-04-08T01:53:14.295Z,30.40
2023-04-08T01:55:42.674Z,29.00
2023-04-08T01:58:12.375Z,29.70
2023-04-08T02:00:42.952Z,30.30
2023-04-08T02:03:12.492Z,33.00
2023-04-08T02:05:41.064Z,29.10
2023-04-08T02:08:09.296Z,30.70
2023-04-08T02:10:37.820Z,31.60
2023-04-08T02:13:06.030Z,29.30
2023-04-08T02:15:36.762Z,28.80
2023-04-08T02:18:16.724Z,29.70
2023-04-08T02:20:48.386Z,29.30
2023-04-08T02:23:25.650Z,26.70
2023-04-08T02:25:55.911Z,25.40
2023-04-08T02:28:25.710Z,23.60
2023-04-08T02:30:54.890Z,22.30
2023-04-08T02:33:23.412Z,21.20
2023-04-08T02:35:55.183Z,21.70
2023-04-08T02:38:24.349Z,21.60
2023-04-08T02:40:52.554Z,18.20
2023-04-08T02:43:20.570Z,19.70
2023-04-08T02:45:49.182Z,18.60
2023-04-08T02:48:17.017Z,20.30
2023-04-08T02:50:44.989Z,19.60
2023-04-08T02:53:12.896Z,19.40
2023-04-08T02:55:40.918Z,19.80
2023-04-08T02:58:09.184Z,20.30
2023-04-08T03:00:39.842Z,20.50
2023-04-08T03:03:07.746Z,21.60
2023-04-08T03:05:36.160Z,20.70
2023-04-08T03:08:04.220Z,20.90
2023-04-08T03:10:32.301Z,21.90
2023-04-08T03:13:00.347Z,21.40
2023-04-08T03:15:28.543Z,22.00
2023-04-08T03:17:56.927Z,22.40
2023-04-08T03:20:24.871Z,21.10
2023-04-08T03:22:52.782Z,19.00
2023-04-08T03:25:20.721Z,20.00
2023-04-08T03:27:49.832Z,17.50
2023-04-08T03:30:18.607Z,19.30
2023-04-08T03:32:46.970Z,16.60
2023-04-08T03:35:15.270Z,16.30
2023-04-08T03:37:43.231Z,17.80
2023-04-08T03:40:14.015Z,17.90
2023-04-08T03:42:42.038Z,18.40
2023-04-08T03:45:10.306Z,17.80
2023-04-08T03:47:38.501Z,19.00
2023-04-08T03:50:06.790Z,19.60
2023-04-08T03:52:34.828Z,19.30
2023-04-08T03:55:03.068Z,18.90
2023-04-08T03:57:31.068Z,20.10
2023-04-08T03:59:59.445Z,17.70
2023-04-08T04:02:27.606Z,17.40
2023-04-08T04:04:56.182Z,17.10
2023-04-08T04:07:24.985Z,16.30
2023-04-08T04:09:56.643Z,17.70
2023-04-08T04:12:26.596Z,18.60
2023-04-08T04:14:54.653Z,18.30
2023-04-08T04:17:22.710Z,16.10
2023-04-08T04:19:50.850Z,18.50
2023-04-08T04:22:18.602Z,19.10
2023-04-08T04:24:50.206Z,19.10
2023-04-08T04:27:18.201Z,18.30
2023-04-08T04:29:46.017Z,18.80
2023-04-08T04:32:13.854Z,20.10
2023-04-08T04:34:44.056Z,19.80
2023-04-08T04:37:12.284Z,21.40
2023-04-08T04:39:40.653Z,19.60
2023-04-08T04:42:08.740Z,19.90
2023-04-08T04:44:36.706Z,19.40
2023-04-08T04:47:04.556Z,19.50
2023-04-08T04:49:32.851Z,17.20
2023-04-08T04:52:01.230Z,19.60
2023-04-08T04:54:29.383Z,18.90
2023-04-08T04:56:58.010Z,19.50
2023-04-08T04:59:26.445Z,18.30
2023-04-08T05:01:54.196Z,19.60
2023-04-08T05:04:22.599Z,19.70
2023-04-08T05:06:51.319Z,17.80
2023-04-08T05:09:19.085Z,18.70
2023-04-08T05:11:46.909Z,17.30
2023-04-08T05:14:14.881Z,19.20
2023-04-08T05:16:42.752Z,18.60
2023-04-08T05:19:11.111Z,20.00
2023-04-08T05:21:39.408Z,20.00
2023-04-08T05:24:07.244Z,21.30
2023-04-08T05:26:35.130Z,22.10
2023-04-08T05:29:03.429Z,23.30
2023-04-08T05:31:32.025Z,21.10
2023-04-08T05:34:00.779Z,26.60
2023-04-08T05:36:28.708Z,32.00
2023-04-08T05:38:56.934Z,26.70
2023-04-08T05:41:25.679Z,23.40
2023-04-08T05:43:53.940Z,25.00
2023-04-08T05:46:22.772Z,23.10
2023-04-08T05:48:51.685Z,24.50
2023-04-08T05:51:20.210Z,19.10
2023-04-08T05:53:48.168Z,19.70
2023-04-08T05:56:17.509Z,20.70
2023-04-08T05:58:45.727Z,22.00
2023-04-08T06:01:13.674Z,23.70
2023-04-08T06:03:42.181Z,30.40
2023-04-08T06:06:13.386Z,24.10
2023-04-08T06:08:41.276Z,26.30
2023-04-08T06:11:09.118Z,48.50
2023-04-08T06:13:38.138Z,48.00
2023-04-08T06:16:10.480Z,23.30
2023-04-08T06:18:38.323Z,34.00
2023-04-08T06:21:06.861Z,32.70
2023-04-08T06:23:35.592Z,26.60
2023-04-08T06:26:04.890Z,29.00
2023-04-08T06:28:32.720Z,24.80
2023-04-08T06:31:01.013Z,23.20
2023-04-08T06:33:28.847Z,25.20
2023-04-08T06:36:07.421Z,23.60
2023-04-08T06:38:35.909Z,21.30
2023-04-08T06:41:04.816Z,18.90
2023-04-08T06:43:33.439Z,18.80
2023-04-08T06:46:01.839Z,17.10
2023-04-08T06:48:33.512Z,19.30
2023-04-08T06:51:01.987Z,17.80
2023-04-08T06:53:31.353Z,20.20
2023-04-08T06:55:59.668Z,17.20
2023-04-08T06:58:28.179Z,17.40
2023-04-08T07:00:56.876Z,19.30
2023-04-08T07:03:25.217Z,19.10
2023-04-08T07:05:53.472Z,18.70
2023-04-08T07:08:22.111Z,19.00
2023-04-08T07:10:52.134Z,15.60
2023-04-08T07:13:19.911Z,14.70
2023-04-08T07:15:47.811Z,16.20
2023-04-08T07:18:16.068Z,17.20
2023-04-08T07:20:44.086Z,17.50
2023-04-08T07:23:12.734Z,17.80
2023-04-08T07:25:40.884Z,16.60
2023-04-08T07:28:08.811Z,16.80
2023-04-08T07:30:36.788Z,15.60
2023-04-08T07:33:05.248Z,15.30
2023-04-08T07:35:33.952Z,16.90
2023-04-08T07:38:01.994Z,15.80
2023-04-08T07:40:30.276Z,14.50
2023-04-08T07:42:58.225Z,15.80
2023-04-08T07:45:26.225Z,14.90
2023-04-08T07:47:54.435Z,13.80
2023-04-08T07:50:22.753Z,13.10
2023-04-08T07:52:50.660Z,14.50
2023-04-08T07:55:19.496Z,14.30
2023-04-08T07:57:47.783Z,13.70
2023-04-08T08:00:21.674Z,31.40
2023-04-08T08:02:50.234Z,16.10
2023-04-08T08:05:18.274Z,17.00
2023-04-08T08:07:46.397Z,14.60
2023-04-08T08:10:14.477Z,15.20
2023-04-08T08:12:42.518Z,15.60
2023-04-08T08:15:11.037Z,16.90
2023-04-08T08:17:39.480Z,28.70
2023-04-08T08:20:08.352Z,19.70
2023-04-08T08:22:41.855Z,23.30
2023-04-08T08:25:18.766Z,13.50
2023-04-08T08:27:47.053Z,14.00
2023-04-08T08:30:15.146Z,16.90
2023-04-08T08:32:43.358Z,13.80
2023-04-08T08:35:11.461Z,13.50
2023-04-08T08:37:39.426Z,12.80
2023-04-08T08:40:08.638Z,17.70
2023-04-08T08:42:36.527Z,14.10
2023-04-08T08:45:05.062Z,14.40
2023-04-08T08:47:34.186Z,13.90
2023-04-08T08:50:03.381Z,12.70
2023-04-08T08:52:31.333Z,13.40
2023-04-08T08:54:59.741Z,13.30
2023-04-08T08:57:27.701Z,13.50
2023-04-08T08:59:55.648Z,13.50
2023-04-08T09:02:28.449Z,16.00
2023-04-08T09:04:58.854Z,15.00
2023-04-08T09:07:27.529Z,13.40
2023-04-08T09:09:56.459Z,14.30
2023-04-08T09:12:25.402Z,12.40
2023-04-08T09:15:03.525Z,13.10
2023-04-08T09:17:33.111Z,13.60
2023-04-08T09:20:06.591Z,19.40
2023-04-08T09:22:40.755Z,16.80
2023-04-08T09:25:23.483Z,16.00
2023-04-08T09:27:54.324Z,13.60
2023-04-08T09:30:27.890Z,13.50
2023-04-08T09:32:58.095Z,14.50
2023-04-08T09:35:27.188Z,15.00
2023-04-08T09:37:55.194Z,13.20
2023-04-08T09:40:24.969Z,13.50
2023-04-08T09:42:54.493Z,12.90
2023-04-08T09:45:23.183Z,13.00
2023-04-08T09:48:01.721Z,13.20
2023-04-08T09:50:33.249Z,12.00
2023-04-08T09:53:02.850Z,12.00
2023-04-08T09:55:34.037Z,13.50
2023-04-08T09:58:08.461Z,16.00
2023-04-08T10:00:44.187Z,14.30
2023-04-08T10:03:22.249Z,19.00
2023-04-08T10:05:52.803Z,16.90
2023-04-08T10:08:20.786Z,14.60
2023-04-08T10:10:49.551Z,14.50
2023-04-08T10:13:17.727Z,14.00
2023-04-08T10:15:47.825Z,15.00
2023-04-08T10:18:18.612Z,15.30
2023-04-08T10:20:47.453Z,14.40
2023-04-08T10:23:16.568Z,14.90
2023-04-08T10:25:45.516Z,14.70
2023-04-08T10:28:18.325Z,14.60
2023-04-08T10:30:46.296Z,15.80
2023-04-08T10:33:19.201Z,20.20
2023-04-08T10:35:48.713Z,29.20
2023-04-08T10:38:17.891Z,14.00
2023-04-08T10:40:46.057Z,15.50
2023-04-08T10:43:14.359Z,16.80
2023-04-08T10:45:42.925Z,14.10
2023-04-08T10:48:17.902Z,18.00
2023-04-08T10:50:56.343Z,16.70
2023-04-08T10:53:26.928Z,13.70
2023-04-08T10:56:05.808Z,17.00
2023-04-08T10:58:34.700Z,20.20
2023-04-08T11:01:07.294Z,19.00
2023-04-08T11:03:36.531Z,24.50
2023-04-08T11:06:04.938Z,26.10
2023-04-08T11:08:33.415Z,18.90
2023-04-08T11:11:02.324Z,19.20
2023-04-08T11:13:31.076Z,18.40
2023-04-08T11:16:00.353Z,20.70
2023-04-08T11:18:28.908Z,20.50
2023-04-08T11:20:58.961Z,22.00
2023-04-08T11:23:28.126Z,22.30
2023-04-08T11:25:58.096Z,20.00
2023-04-08T11:28:26.330Z,18.30
2023-04-08T11:30:55.208Z,17.00
2023-04-08T11:33:25.106Z,19.70
2023-04-08T11:35:53.276Z,18.60
2023-04-08T11:38:25.142Z,18.70
2023-04-08T11:40:57.402Z,18.00
2023-04-08T11:43:26.488Z,19.60
2023-04-08T11:45:54.368Z,22.80
2023-04-08T11:48:22.505Z,20.20
2023-04-08T11:51:02.637Z,22.00
2023-04-08T11:53:31.073Z,17.00
2023-04-08T11:56:16.313Z,16.20
2023-04-08T11:58:44.382Z,16.50
2023-04-08T12:01:12.707Z,17.30
2023-04-08T12:03:53.806Z,16.40
2023-04-08T12:06:21.960Z,14.00
2023-04-08T12:08:50.754Z,15.00
2023-04-08T12:11:20.230Z,14.70
2023-04-08T12:13:50.220Z,15.80
2023-04-08T12:16:19.662Z,16.20
2023-04-08T12:18:47.897Z,18.60
2023-04-08T12:21:16.088Z,18.80
2023-04-08T12:23:44.062Z,15.90
2023-04-08T12:26:11.870Z,18.50
2023-04-08T12:28:39.872Z,16.50
2023-04-08T12:31:07.809Z,15.30
2023-04-08T12:33:36.359Z,15.80
2023-04-08T12:36:04.465Z,15.90
2023-04-08T12:38:33.518Z,17.20
2023-04-08T12:41:01.537Z,27.90
2023-04-08T12:43:29.667Z,19.10
2023-04-08T12:45:58.764Z,18.30
2023-04-08T12:48:26.612Z,18.60
2023-04-08T12:50:54.596Z,18.90
2023-04-08T12:53:22.553Z,18.00
2023-04-08T12:55:51.806Z,18.90
2023-04-08T12:58:21.394Z,17.90
2023-04-08T13:00:51.764Z,18.10
2023-04-08T13:03:20.661Z,20.90
2023-04-08T13:05:48.695Z,20.10
2023-04-08T13:08:17.790Z,20.20
2023-04-08T13:10:46.115Z,19.40
2023-04-08T13:13:14.500Z,17.70
2023-04-08T13:15:44.123Z,16.70
2023-04-08T13:18:12.134Z,45.10
2023-04-08T13:20:40.245Z,16.50
2023-04-08T13:23:08.305Z,24.00
2023-04-08T13:25:36.386Z,19.40
2023-04-08T13:28:04.848Z,15.30
2023-04-08T13:30:33.144Z,15.20
2023-04-08T13:33:01.618Z,15.80
2023-04-08T13:35:29.797Z,22.90
2023-04-08T13:37:57.769Z,18.50
2023-04-08T13:40:27.265Z,16.60
2023-04-08T13:42:57.092Z,15.20
2023-04-08T13:45:25.449Z,16.00
2023-04-08T13:47:55.474Z,18.50
2023-04-08T13:50:24.151Z,18.40
2023-04-08T13:52:54.232Z,17.50
2023-04-08T13:55:22.435Z,19.80
2023-04-08T13:57:50.332Z,16.90
2023-04-08T14:00:18.685Z,18.20
2023-04-08T14:02:46.797Z,17.70
2023-04-08T14:05:15.126Z,18.30
2023-04-08T14:07:43.276Z,17.70
2023-04-08T14:10:11.585Z,17.50
2023-04-08T14:12:39.868Z,20.60
2023-04-08T14:15:08.731Z,19.20
2023-04-08T14:17:36.610Z,16.50
2023-04-08T14:20:06.625Z,67.00
2023-04-08T14:22:34.902Z,20.50
2023-04-08T14:25:03.114Z,18.60
2023-04-08T14:27:31.553Z,26.00
2023-04-08T14:29:59.521Z,22.00
2023-04-08T14:32:27.598Z,20.70
2023-04-08T14:34:57.260Z,19.90
2023-04-08T14:37:25.378Z,27.40
2023-04-08T14:39:53.354Z,26.10
2023-04-08T14:42:22.643Z,21.40
2023-04-08T14:44:50.710Z,19.30
2023-04-08T14:47:18.936Z,19.50
2023-04-08T14:49:47.018Z,17.50
2023-04-08T14:52:14.929Z,18.00
2023-04-08T14:54:45.351Z,18.10
2023-04-08T14:57:13.725Z,19.90
2023-04-08T14:59:41.715Z,18.80
2023-04-08T15:02:10.632Z,19.40
2023-04-08T15:04:39.486Z,18.80
2023-04-08T15:07:07.777Z,17.90
2023-04-08T15:09:38.695Z,17.50
2023-04-08T15:12:06.444Z,18.10
2023-04-08T15:14:34.722Z,19.20
2023-04-08T15:17:02.565Z,18.80
2023-04-08T15:19:30.560Z,18.00
2023-04-08T15:21:58.529Z,18.70
2023-04-08T15:24:26.805Z,19.10
2023-04-08T15:26:54.668Z,18.50
2023-04-08T15:29:24.172Z,18.40
2023-04-08T15:31:52.651Z,21.30
2023-04-08T15:34:20.415Z,18.40
2023-04-08T15:36:48.289Z,19.90
2023-04-08T15:39:16.119Z,20.40
2023-04-08T15:41:43.881Z,20.20
2023-04-08T15:44:11.774Z,21.20
2023-04-08T15:46:39.687Z,106.70
2023-04-08T15:49:08.130Z,122.80
2023-04-08T15:51:36.706Z,40.20
2023-04-08T15:54:04.581Z,65.90
2023-04-08T15:56:33.758Z,27.20
2023-04-08T15:59:01.839Z,27.60
2023-04-08T16:01:30.033Z,18.80
2023-04-08T16:03:57.977Z,25.70
2023-04-08T16:06:26.665Z,176.80
2023-04-08T16:08:55.474Z,31.50
2023-04-08T16:11:25.315Z,90.50
2023-04-08T16:13:53.852Z,31.70
2023-04-08T16:16:22.147Z,23.70
2023-04-08T16:18:50.407Z,21.10
2023-04-08T16:21:19.179Z,21.50
2023-04-08T16:23:47.256Z,47.80
2023-04-08T16:26:15.570Z,21.30
2023-04-08T16:28:44.627Z,21.20
2023-04-08T16:31:14.712Z,23.00
2023-04-08T16:33:42.676Z,20.80
2023-04-08T16:36:11.357Z,21.00
2023-04-08T16:38:39.370Z,25.50
2023-04-08T16:41:10.097Z,23.90
2023-04-08T16:43:38.583Z,21.40
2023-04-08T16:46:15.551Z,21.60
2023-04-08T16:48:45.267Z,20.50
2023-04-08T16:51:13.167Z,37.60
2023-04-08T16:53:41.221Z,25.70
2023-04-08T16:56:13.164Z,26.00
2023-04-08T16:58:41.429Z,30.80
2023-04-08T17:01:10.213Z,26.20
2023-04-08T17:03:38.404Z,22.90
2023-04-08T17:06:10.567Z,24.20
2023-04-08T17:08:38.570Z,22.40
2023-04-08T17:11:10.537Z,20.50
2023-04-08T17:13:40.067Z,20.80
2023-04-08T17:16:11.966Z,19.80
2023-04-08T17:18:42.776Z,21.80
2023-04-08T17:21:15.910Z,19.60
2023-04-08T17:23:44.379Z,19.70
2023-04-08T17:26:13.060Z,21.00
2023-04-08T17:28:41.041Z,20.50
2023-04-08T17:31:10.848Z,22.30
2023-04-08T17:33:39.214Z,26.50
2023-04-08T17:36:07.930Z,25.00
2023-04-08T17:38:39.735Z,24.00
2023-04-08T17:41:08.340Z,25.90
2023-04-08T17:43:36.308Z,22.80
2023-04-08T17:46:04.414Z,27.50
2023-04-08T17:48:32.755Z,22.80
2023-04-08T17:51:05.111Z,25.00
2023-04-08T17:53:34.127Z,26.20
2023-04-08T17:56:01.919Z,24.80
2023-04-08T17:58:29.854Z,22.70
2023-04-08T18:00:57.757Z,22.80
2023-04-08T18:03:29.135Z,23.10
2023-04-08T18:05:57.914Z,23.80
2023-04-08T18:08:25.820Z,22.80
2023-04-08T18:10:53.839Z,37.70
2023-04-08T18:13:21.746Z,29.40
2023-04-08T18:15:49.927Z,28.00
2023-04-08T18:18:20.460Z,28.60
2023-04-08T18:20:48.855Z,30.70
2023-04-08T18:23:17.652Z,25.70
2023-04-08T18:25:47.675Z,26.80
2023-04-08T18:28:16.115Z,26.80
2023-04-08T18:30:44.930Z,26.70
2023-04-08T18:33:14.734Z,27.40
2023-04-08T18:35:45.199Z,29.70
2023-04-08T18:38:18.515Z,30.30
2023-04-08T18:40:49.340Z,34.50
2023-04-08T18:43:19.103Z,31.60
2023-04-08T18:45:48.108Z,33.90
2023-04-08T18:48:16.658Z,33.60
2023-04-08T18:50:46.166Z,31.80
2023-04-08T18:53:15.063Z,39.50
2023-04-08T18:55:45.188Z,39.00
2023-04-08T18:58:14.269Z,31.40
2023-04-08T19:00:43.922Z,28.00
2023-04-08T19:03:13.064Z,28.10
2023-04-08T19:05:43.073Z,28.60
2023-04-08T19:08:11.066Z,28.50
2023-04-08T19:10:39.632Z,30.40
2023-04-08T19:13:09.797Z,29.70
2023-04-08T19:15:38.673Z,31.30
2023-04-08T19:18:06.951Z,29.30
2023-04-08T19:20:35.670Z,31.30
2023-04-08T19:23:03.780Z,32.40
2023-04-08T19:25:32.784Z,32.10
2023-04-08T19:28:01.741Z,30.70
2023-04-08T19:30:30.049Z,31.10
2023-04-08T19:32:59.024Z,28.80
2023-04-08T19:35:27.522Z,31.20
2023-04-08T19:37:57.937Z,30.10
2023-04-08T19:40:26.368Z,28.70
2023-04-08T19:42:54.614Z,31.00
2023-04-08T19:45:22.911Z,30.70
2023-04-08T19:47:50.934Z,31.10
2023-04-08T19:50:22.401Z,31.70
2023-04-08T19:52:50.870Z,29.40
2023-04-08T19:55:19.618Z,30.90
2023-04-08T19:57:49.911Z,31.40
2023-04-08T20:00:18.861Z,29.30
2023-04-08T20:02:46.982Z,32.40
2023-04-08T20:05:17.462Z,30.00
2023-04-08T20:07:46.158Z,36.20
2023-04-08T20:10:15.167Z,39.90
2023-04-08T20:12:43.413Z,38.10
2023-04-08T20:15:23.512Z,44.80
2023-04-08T20:17:54.290Z,46.50
2023-04-08T20:20:23.412Z,69.90
2023-04-08T20:22:52.728Z,54.30
2023-04-08T20:25:22.832Z,69.70
2023-04-08T20:27:50.784Z,57.90
2023-04-08T20:30:19.075Z,44.20
2023-04-08T20:32:47.465Z,40.20
2023-04-08T20:35:17.165Z,35.20
2023-04-08T20:37:47.368Z,34.70
2023-04-08T20:40:18.175Z,36.40
2023-04-08T20:42:47.522Z,33.30
2023-04-08T20:45:16.432Z,40.60
2023-04-08T20:47:46.408Z,39.10
2023-04-08T20:50:15.510Z,38.20
2023-04-08T20:52:44.188Z,36.90
2023-04-08T20:55:16.634Z,35.00
2023-04-08T20:57:44.880Z,40.90
2023-04-08T21:00:13.830Z,38.40
2023-04-08T21:02:42.421Z,36.10
2023-04-08T21:05:12.047Z,37.10
2023-04-08T21:07:46.646Z,37.00
2023-04-08T21:10:14.918Z,39.20
2023-04-08T21:12:45.382Z,39.50
2023-04-08T21:15:14.543Z,36.70
2023-04-08T21:17:43.057Z,36.80
2023-04-08T21:20:11.822Z,39.80
2023-04-08T21:22:40.388Z,41.50
2023-04-08T21:25:09.180Z,50.00
2023-04-08T21:27:37.964Z,50.50
2023-04-08T21:30:09.136Z,48.80
2023-04-08T21:32:37.200Z,44.70
2023-04-08T21:35:06.078Z,47.90
2023-04-08T21:37:34.846Z,44.00
2023-04-08T21:40:04.230Z,52.30
2023-04-08T21:42:33.166Z,41.80
2023-04-08T21:45:01.609Z,48.00
2023-04-08T21:47:30.528Z,43.00
2023-04-08T21:49:58.395Z,55.60
2023-04-08T21:52:26.963Z,45.80
2023-04-08T21:54:54.828Z,51.90
2023-04-08T21:57:22.897Z,48.30
2023-04-08T21:59:51.280Z,42.20
2023-04-08T22:02:19.247Z,43.10
2023-04-08T22:04:47.824Z,41.50
2023-04-08T22:07:16.306Z,46.20
2023-04-08T22:09:44.212Z,42.10
2023-04-08T22:12:12.069Z,41.60
2023-04-08T22:14:39.875Z,40.50
2023-04-08T22:17:08.332Z,42.10
2023-04-08T22:19:36.573Z,43.50
2023-04-08T22:22:04.646Z,43.20
2023-04-08T22:24:32.603Z,41.70
2023-04-08T22:27:01.287Z,40.20
2023-04-08T22:29:29.566Z,41.10
2023-04-08T22:32:00.366Z,42.80
2023-04-08T22:34:28.265Z,40.60
2023-04-08T22:36:56.440Z,39.70
2023-04-08T22:39:26.278Z,47.80
2023-04-08T22:41:54.423Z,47.30
2023-04-08T22:44:22.495Z,44.10
2023-04-08T22:46:50.863Z,44.50
2023-04-08T22:49:18.733Z,45.50
2023-04-08T22:51:47.402Z,44.80
2023-04-08T22:54:15.598Z,44.80
2023-04-08T22:56:43.453Z,44.10
2023-04-08T22:59:11.524Z,42.90
2023-04-08T23:01:39.705Z,45.10
2023-04-08T23:04:07.847Z,44.00
2023-04-08T23:06:36.066Z,50.20
2023-04-08T23:09:04.177Z,49.40
2023-04-08T23:11:32.005Z,52.60
2023-04-08T23:14:00.039Z,46.20
2023-04-08T23:16:28.391Z,46.10
2023-04-08T23:18:56.601Z,39.90
2023-04-08T23:21:24.565Z,47.30
2023-04-08T23:23:52.407Z,44.30
2023-04-08T23:26:21.333Z,48.10
2023-04-08T23:28:49.581Z,48.40
2023-04-08T23:31:18.009Z,50.90
2023-04-08T23:33:45.950Z,49.00
2023-04-08T23:36:14.107Z,47.50
2023-04-08T23:38:42.071Z,42.50
2023-04-08T23:41:09.960Z,42.10
2023-04-08T23:43:38.340Z,44.30
2023-04-08T23:46:06.168Z,42.40
2023-04-08T23:48:34.607Z,42.40
2023-04-08T23:51:04.284Z,43.30
2023-04-08T23:53:32.458Z,42.40
2023-04-08T23:56:07.796Z,46.70
2023-04-08T23:58:36.489Z,43.50
